Time;durP1;ratioP1;P1;durP2;ratioP2;P2;SDS_P1;SDS_P2;PMS_P1;PMS_P2;Temp;Humidity;BMP_temperature;BMP_pressure;BME280_temperature;BME280_humidity;BME280_pressure;Samples;Min_cycle;Max_cycle;Signal;HPM_P1;HPM_P2
2021/04/30 00:00:38;;;;;;;20.33;16.17;;;;;;;6.93;78.85;99737.13;5054839;28;20658;-76
2021/04/30 00:03:04;;;;;;;19.37;15.83;;;;;;;6.87;78.90;99737.47;5073267;28;20200;-78
2021/04/30 00:05:29;;;;;;;18.60;15.67;;;;;;;6.81;79.46;99733.38;5071749;28;20179;-69
2021/04/30 00:07:56;;;;;;;19.73;15.67;;;;;;;6.78;79.31;99730.03;5073070;28;20214;-69
2021/04/30 00:10:22;;;;;;;19.90;15.40;;;;;;;6.80;79.12;99744.06;5073012;28;20516;-68
2021/04/30 00:12:47;;;;;;;18.60;15.37;;;;;;;6.73;78.88;99740.88;5072971;28;20571;-68
2021/04/30 00:15:13;;;;;;;18.70;14.43;;;;;;;6.77;78.99;99726.53;5071676;28;20189;-69
2021/04/30 00:17:39;;;;;;;16.77;12.97;;;;;;;6.73;78.77;99732.94;5071372;28;20210;-70
2021/04/30 00:20:04;;;;;;;16.93;14.27;;;;;;;6.69;78.74;99742.00;5072783;28;20175;-67
2021/04/30 00:22:30;;;;;;;17.50;14.27;;;;;;;6.63;78.93;99728.19;5071464;28;20507;-68
2021/04/30 00:24:55;;;;;;;18.87;14.30;;;;;;;6.55;79.80;99731.25;5072674;28;20178;-70
2021/04/30 00:27:20;;;;;;;18.90;14.57;;;;;;;6.48;79.99;99744.00;5072911;28;20685;-68
2021/04/30 00:29:46;;;;;;;16.27;12.57;;;;;;;6.39;79.36;99741.84;5076674;28;20581;-68
2021/04/30 00:32:12;;;;;;;15.63;12.70;;;;;;;6.30;79.46;99723.75;5075530;28;20584;-69
2021/04/30 00:34:39;;;;;;;16.80;12.83;;;;;;;6.35;79.15;99740.28;5075729;28;20202;-70
2021/04/30 00:37:05;;;;;;;15.83;11.37;;;;;;;6.32;79.28;99734.25;5075562;28;20276;-70
2021/04/30 00:39:30;;;;;;;16.10;12.67;;;;;;;6.27;79.55;99738.03;5076593;28;20584;-70
2021/04/30 00:41:55;;;;;;;16.03;11.77;;;;;;;6.42;78.34;99730.22;5075334;28;20193;-70
2021/04/30 00:44:21;;;;;;;15.03;12.03;;;;;;;6.36;78.73;99730.53;5075329;28;20179;-70
2021/04/30 00:46:46;;;;;;;15.07;12.70;;;;;;;6.34;79.07;99746.53;5075049;28;20210;-70
2021/04/30 00:49:12;;;;;;;15.20;12.30;;;;;;;6.36;79.00;99747.31;5076491;28;20182;-70
2021/04/30 00:51:37;;;;;;;15.80;12.83;;;;;;;6.41;79.37;99750.56;5076361;28;20194;-69
2021/04/30 00:54:03;;;;;;;16.07;12.57;;;;;;;6.39;79.69;99736.53;5076890;28;20183;-70
2021/04/30 00:56:28;;;;;;;16.23;13.33;;;;;;;6.41;79.91;99750.56;5075036;28;20245;-70
2021/04/30 00:58:54;;;;;;;16.20;13.60;;;;;;;6.38;79.77;99742.78;5077142;28;20257;-71
2021/04/30 01:01:19;;;;;;;15.87;13.33;;;;;;;6.39;80.49;99741.84;5075616;28;20663;-71
2021/04/30 01:03:46;;;;;;;16.63;13.37;;;;;;;6.37;80.53;99742.84;5076612;28;20240;-70
2021/04/30 01:06:12;;;;;;;16.57;12.70;;;;;;;6.40;80.65;99746.19;5075126;28;20202;-70
2021/04/30 01:08:38;;;;;;;18.63;12.37;;;;;;;6.36;80.52;99746.44;5075076;28;20179;-70
2021/04/30 01:11:04;;;;;;;17.47;13.10;;;;;;;6.33;81.59;99758.06;5075037;28;20183;-71
2021/04/30 01:13:29;;;;;;;16.93;13.67;;;;;;;6.31;81.66;99781.13;5074808;28;20179;-70
2021/04/30 01:15:54;;;;;;;18.27;13.60;;;;;;;6.25;82.15;99755.78;5074661;28;20662;-69
2021/04/30 01:18:19;;;;;;;17.33;13.40;;;;;;;6.25;82.33;99755.78;5058712;28;20179;-69
2021/04/30 01:20:45;;;;;;;15.77;12.57;;;;;;;6.25;82.96;99757.59;5074666;28;20179;-70
2021/04/30 01:23:10;;;;;;;16.00;12.47;;;;;;;6.27;82.93;99761.88;5074881;28;20206;-69
2021/04/30 01:25:38;;;;;;;15.17;11.90;;;;;;;6.27;82.99;99774.25;5074455;28;20183;-70
2021/04/30 01:28:04;;;;;;;14.10;11.77;;;;;;;6.25;83.29;99771.69;5075733;28;20175;-70
2021/04/30 01:30:33;;;;;;;14.77;12.23;;;;;;;6.22;83.71;99768.34;5074784;28;20186;-70
2021/04/30 01:32:59;;;;;;;15.47;12.00;;;;;;;6.08;84.32;99787.63;5074705;28;20182;-70
2021/04/30 01:35:33;;;;;;;13.50;11.73;;;;;;;6.01;85.08;99803.91;5074522;28;20257;-70
2021/04/30 01:37:59;;;;;;;16.53;12.63;;;;;;;5.92;85.98;99776.91;5075362;28;20179;-70
2021/04/30 01:40:30;;;;;;;16.20;12.80;;;;;;;5.89;86.22;99795.63;5075608;28;20626;-70
2021/04/30 01:43:16;;;;;;;14.63;12.00;;;;;;;5.94;85.64;99796.25;5074400;28;20237;-71
2021/04/30 01:45:52;;;;;;;15.43;12.63;;;;;;;5.97;85.98;99786.47;5075445;28;20186;-69
2021/04/30 01:48:24;;;;;;;16.80;13.03;;;;;;;5.97;86.43;99805.84;5074545;28;20159;-69
2021/04/30 01:50:50;;;;;;;18.47;12.47;;;;;;;5.95;86.90;99816.53;5074575;28;20174;-69
2021/04/30 01:53:19;;;;;;;15.37;11.70;;;;;;;5.88;86.69;99815.06;5074518;28;20171;-69
2021/04/30 01:55:44;;;;;;;14.93;12.27;;;;;;;5.91;87.34;99807.00;5075615;28;20624;-70
2021/04/30 01:58:10;;;;;;;15.43;11.33;;;;;;;5.92;87.32;99821.94;5074516;28;20178;-69
2021/04/30 02:00:36;;;;;;;18.00;12.13;;;;;;;5.96;86.26;99822.69;5074112;28;20198;-69
2021/04/30 02:03:01;;;;;;;12.90;11.00;;;;;;;5.89;87.32;99822.09;5074691;28;20663;-71
2021/04/30 02:05:29;;;;;;;16.10;11.53;;;;;;;5.90;87.48;99839.69;5075083;28;20547;-70
2021/04/30 02:07:54;;;;;;;15.67;10.87;;;;;;;5.80;88.30;99806.63;5075907;28;20175;-69
2021/04/30 02:10:24;;;;;;;17.53;11.50;;;;;;;5.81;88.24;99850.72;5057228;28;20716;-69
2021/04/30 02:12:51;;;;;;;16.87;12.33;;;;;;;5.80;89.15;99838.41;5073755;28;20706;-69
2021/04/30 02:15:19;;;;;;;20.43;10.87;;;;;;;5.77;89.36;99843.88;5073899;28;20206;-69
2021/04/30 02:17:44;;;;;;;14.63;11.67;;;;;;;5.77;89.30;99848.31;5073600;28;20286;-69
2021/04/30 02:20:10;;;;;;;20.40;12.33;;;;;;;5.71;89.07;99845.97;5074760;28;20181;-69
2021/04/30 02:22:36;;;;;;;17.77;11.83;;;;;;;5.71;88.95;99830.94;5074880;28;20207;-69
2021/04/30 02:25:03;;;;;;;15.57;11.07;;;;;;;5.61;89.38;99866.72;5073690;28;20181;-70
2021/04/30 02:27:28;;;;;;;15.67;12.50;;;;;;;5.61;90.01;99858.78;5074842;28;20563;-69
2021/04/30 02:29:53;;;;;;;19.27;12.33;;;;;;;5.63;88.82;99868.38;5074489;28;20178;-70
2021/04/30 02:32:19;;;;;;;13.67;11.07;;;;;;;5.59;88.81;99850.06;5074542;28;20178;-70
2021/04/30 02:34:44;;;;;;;18.30;12.13;;;;;;;5.53;88.86;99861.78;5074819;28;20213;-70
2021/04/30 02:37:10;;;;;;;19.30;12.67;;;;;;;5.54;88.68;99852.91;5073140;28;20190;-70
2021/04/30 02:39:35;;;;;;;19.87;12.83;;;;;;;5.47;89.49;99858.56;5056498;28;20555;-70
2021/04/30 02:42:00;;;;;;;24.07;12.30;;;;;;;5.51;88.94;99870.72;5073132;28;20210;-70
2021/04/30 02:44:26;;;;;;;17.87;11.93;;;;;;;5.46;88.40;99870.94;5073067;28;20640;-70
2021/04/30 02:46:51;;;;;;;16.57;11.37;;;;;;;5.39;89.05;99889.84;5072919;28;20210;-70
2021/04/30 02:49:24;;;;;;;19.97;12.37;;;;;;;5.39;88.75;99871.31;5072689;28;20599;-69
2021/04/30 02:51:49;;;;;;;14.30;11.27;;;;;;;5.23;89.12;99864.09;5074405;28;20238;-69
2021/04/30 02:54:14;;;;;;;17.10;11.33;;;;;;;5.23;89.58;99881.75;5074242;28;20246;-69
2021/04/30 02:56:40;;;;;;;15.50;10.87;;;;;;;5.23;89.60;99873.81;5074124;28;20199;-69
2021/04/30 02:59:05;;;;;;;18.80;11.13;;;;;;;5.06;90.02;99885.16;5072896;28;20627;-71
2021/04/30 03:01:31;;;;;;;15.00;10.70;;;;;;;5.21;89.38;99910.06;5072932;28;20559;-71
2021/04/30 03:03:56;;;;;;;17.63;11.40;;;;;;;5.17;89.67;99905.81;5074136;28;20178;-70
2021/04/30 03:06:22;;;;;;;15.63;11.20;;;;;;;5.14;89.35;99911.25;5072777;28;20199;-70
2021/04/30 03:08:52;;;;;;;19.60;11.80;;;;;;;5.03;89.71;99909.09;5072635;28;20199;-69
2021/04/30 03:11:18;;;;;;;20.40;10.47;;;;;;;5.17;89.22;99926.97;5072807;28;20635;-70
2021/04/30 03:13:44;;;;;;;16.97;10.20;;;;;;;5.12;89.19;99921.91;5074308;28;20175;-70
2021/04/30 03:16:09;;;;;;;17.27;9.77;;;;;;;4.96;88.67;99928.81;5073903;28;20296;-70
2021/04/30 03:18:34;;;;;;;13.23;9.00;;;;;;;5.01;88.69;99927.69;5055758;28;20186;-70
2021/04/30 03:21:00;;;;;;;14.00;9.17;;;;;;;5.00;89.22;99930.41;5055677;28;20179;-70
2021/04/30 03:23:25;;;;;;;14.63;8.30;;;;;;;4.96;88.29;99939.41;5072420;28;20201;-70
2021/04/30 03:25:50;;;;;;;11.17;7.33;;;;;;;4.98;88.14;99948.13;5072620;28;20223;-70
2021/04/30 03:28:16;;;;;;;12.30;8.10;;;;;;;5.04;87.50;99942.56;5072611;28;20631;-70
2021/04/30 03:30:41;;;;;;;9.47;7.13;;;;;;;4.94;88.12;99967.69;5073837;28;20193;-70
2021/04/30 03:33:06;;;;;;;9.33;6.80;;;;;;;4.87;89.45;99968.88;5073893;28;20312;-70
2021/04/30 03:35:31;;;;;;;13.67;7.43;;;;;;;4.79;89.48;99973.63;5072358;28;20202;-70
2021/04/30 03:37:57;;;;;;;8.73;6.63;;;;;;;4.81;89.14;99977.06;5072682;28;20175;-70
2021/04/30 03:40:22;;;;;;;10.47;6.47;;;;;;;4.89;89.38;99988.19;5072362;28;20182;-70
2021/04/30 03:42:47;;;;;;;10.93;7.00;;;;;;;4.88;88.80;99976.75;5071841;28;20203;-71
2021/04/30 03:45:13;;;;;;;9.70;6.63;;;;;;;4.74;88.89;99975.59;5073580;28;20186;-69
2021/04/30 03:47:38;;;;;;;13.33;6.90;;;;;;;4.86;88.37;99988.31;5088764;22;20281;-74
2021/04/30 03:50:04;;;;;;;8.87;6.13;;;;;;;4.75;88.78;99985.25;5065615;28;20209;-76
2021/04/30 03:52:30;;;;;;;11.17;6.27;;;;;;;4.80;89.04;99988.56;5059542;28;20253;-75
2021/04/30 03:54:55;;;;;;;9.97;6.67;;;;;;;4.74;88.86;99992.31;5059738;28;20182;-75
2021/04/30 03:57:20;;;;;;;11.10;5.30;;;;;;;4.89;87.26;99996.13;5058238;28;20207;-75
2021/04/30 03:59:46;;;;;;;7.53;5.23;;;;;;;4.89;87.28;100014.63;5063087;28;20187;-74
2021/04/30 04:02:11;;;;;;;6.53;5.20;;;;;;;4.89;86.87;100023.44;5055374;28;20721;-74
2021/04/30 04:04:36;;;;;;;8.87;4.90;;;;;;;4.80;87.06;100033.50;5058234;28;20167;-75
2021/04/30 04:07:02;;;;;;;5.93;4.70;;;;;;;4.88;87.16;100036.72;5052967;28;20188;-75
2021/04/30 04:09:27;;;;;;;7.60;5.77;;;;;;;4.77;87.94;100034.50;5052631;28;20597;-75
2021/04/30 04:11:52;;;;;;;10.67;5.23;;;;;;;4.70;88.60;100033.03;5054113;28;20168;-74
2021/04/30 04:14:18;;;;;;;7.63;5.63;;;;;;;4.61;90.96;100044.84;5053698;28;20171;-75
2021/04/30 04:16:43;;;;;;;6.77;5.50;;;;;;;4.63;90.06;100056.22;5053674;28;20214;-74
2021/04/30 04:19:09;;;;;;;8.77;5.30;;;;;;;4.58;89.66;100055.56;5052549;28;20647;-74
2021/04/30 04:21:34;;;;;;;6.80;4.37;;;;;;;4.55;88.86;100066.25;5052386;28;20192;-75
2021/04/30 04:24:00;;;;;;;8.73;5.53;;;;;;;4.42;89.11;100059.72;5052574;28;20229;-74
2021/04/30 04:26:25;;;;;;;8.30;5.20;;;;;;;4.42;89.28;100088.78;5054111;28;20267;-74
2021/04/30 04:28:50;;;;;;;8.17;5.10;;;;;;;4.37;89.76;100083.69;5052591;28;20176;-74
2021/04/30 04:31:15;;;;;;;6.50;5.17;;;;;;;4.47;89.69;100104.47;5053213;28;20226;-75
2021/04/30 04:33:41;;;;;;;9.40;5.70;;;;;;;4.44;89.86;100108.06;5053972;28;20172;-75
2021/04/30 04:36:06;;;;;;;8.13;5.77;;;;;;;4.40;89.74;100112.63;5053213;28;20184;-75
2021/04/30 04:38:32;;;;;;;7.77;6.10;;;;;;;4.40;89.75;100119.69;5055368;28;20183;-75
2021/04/30 04:40:57;;;;;;;7.63;5.47;;;;;;;4.45;89.97;100135.38;5052947;28;20183;-75
2021/04/30 04:43:22;;;;;;;8.40;5.57;;;;;;;4.49;90.20;100132.56;5052605;28;20188;-75
2021/04/30 04:45:48;;;;;;;8.97;5.00;;;;;;;4.51;90.19;100143.94;5070293;28;20521;-75
2021/04/30 04:48:13;;;;;;;9.07;5.10;;;;;;;4.56;89.28;100151.69;5052384;28;20222;-74
2021/04/30 04:50:38;;;;;;;8.80;5.53;;;;;;;4.59;89.66;100157.72;5036921;28;20184;-74
2021/04/30 04:53:04;;;;;;;8.80;5.30;;;;;;;4.54;88.72;100158.81;5053088;28;20584;-74
2021/04/30 04:55:29;;;;;;;7.17;5.37;;;;;;;4.64;88.61;100171.59;5036235;28;20684;-74
2021/04/30 04:57:55;;;;;;;8.53;5.73;;;;;;;4.65;87.73;100165.41;5053143;28;20695;-74
2021/04/30 05:00:21;;;;;;;8.67;6.07;;;;;;;4.72;87.50;100168.66;5054297;28;20229;-75
2021/04/30 05:02:46;;;;;;;10.03;5.50;;;;;;;4.78;87.37;100175.47;5052335;28;20286;-75
2021/04/30 05:05:13;;;;;;;11.83;6.00;;;;;;;4.84;86.86;100183.19;5054115;28;20590;-74
2021/04/30 05:07:38;;;;;;;12.63;7.60;;;;;;;4.89;86.88;100178.56;5054282;28;20196;-74
2021/04/30 05:10:03;;;;;;;8.70;5.70;;;;;;;4.90;86.12;100193.53;5054620;28;20675;-79
2021/04/30 05:12:29;;;;;;;13.67;6.43;;;;;;;4.87;86.15;100201.56;5061862;28;20304;-79
2021/04/30 05:14:54;;;;;;;7.37;4.87;;;;;;;4.83;85.08;100192.00;5063022;28;20198;-80
2021/04/30 05:17:19;;;;;;;7.03;4.80;;;;;;;4.83;85.51;100198.19;5066240;28;20199;-79
2021/04/30 05:19:45;;;;;;;10.73;5.23;;;;;;;4.83;85.31;100202.59;5066015;28;20635;-80
2021/04/30 05:22:12;;;;;;;7.57;5.47;;;;;;;4.81;85.14;100201.78;5067757;28;20199;-78
2021/04/30 05:24:37;;;;;;;6.70;4.77;;;;;;;4.81;84.65;100207.94;5070554;28;20206;-78
2021/04/30 05:27:07;;;;;;;6.47;5.17;;;;;;;4.89;84.41;100210.31;5074990;28;20191;-78
2021/04/30 05:29:39;;;;;;;6.23;5.03;;;;;;;4.93;83.98;100215.41;5075924;28;20164;-79
2021/04/30 05:32:04;;;;;;;9.27;5.57;;;;;;;4.98;83.76;100224.03;5070192;28;20160;-68
2021/04/30 05:34:29;;;;;;;7.70;5.43;;;;;;;5.19;83.74;100224.94;5056199;28;20644;-69
2021/04/30 05:36:55;;;;;;;11.43;6.37;;;;;;;5.28;83.04;100235.16;5056824;28;20195;-69
2021/04/30 05:39:20;;;;;;;10.77;4.90;;;;;;;5.21;83.64;100231.06;5056913;28;20171;-69
2021/04/30 05:41:45;;;;;;;7.60;5.07;;;;;;;5.38;82.37;100232.13;5055165;28;20203;-70
2021/04/30 05:44:10;;;;;;;12.07;6.20;;;;;;;5.47;82.69;100242.34;5056765;28;20202;-70
2021/04/30 05:46:36;;;;;;;11.73;6.90;;;;;;;5.36;82.18;100244.56;5055803;28;20545;-69
2021/04/30 05:49:01;;;;;;;11.60;6.30;;;;;;;5.21;82.14;100239.00;5071074;28;20226;-68
2021/04/30 05:51:27;;;;;;;10.20;7.20;;;;;;;5.17;82.51;100245.31;5056737;28;20168;-69
2021/04/30 05:53:52;;;;;;;8.27;5.97;;;;;;;5.14;82.34;100237.47;5056181;28;20183;-70
2021/04/30 05:56:17;;;;;;;10.63;6.80;;;;;;;5.04;83.35;100254.66;5068914;28;20183;-74
2021/04/30 05:58:43;;;;;;;10.37;6.63;;;;;;;5.02;83.23;100224.75;5080239;28;20175;-80
2021/04/30 06:01:08;;;;;;;9.60;6.93;;;;;;;5.09;82.41;100257.13;5063032;28;20227;-81
2021/04/30 06:03:33;;;;;;;10.67;7.17;;;;;;;4.96;83.03;100252.31;5063211;28;20192;-81
2021/04/30 06:05:58;;;;;;;9.90;6.07;;;;;;;5.10;82.79;100242.97;5064020;28;20191;-81
2021/04/30 06:08:24;;;;;;;9.83;6.10;;;;;;;5.11;81.84;100272.00;5083256;28;20188;-81
2021/04/30 06:10:49;;;;;;;9.20;6.43;;;;;;;5.20;82.27;100279.59;5068610;28;20267;-81
2021/04/30 06:13:15;;;;;;;12.87;6.67;;;;;;;5.33;81.67;100278.19;5072355;28;20172;-82
2021/04/30 06:15:40;;;;;;;10.83;7.50;;;;;;;5.46;80.81;100289.13;5073464;28;20179;-82
2021/04/30 06:18:05;;;;;;;10.03;7.00;;;;;;;5.44;80.43;100274.22;5073625;28;20692;-82
2021/04/30 06:20:30;;;;;;;8.13;6.40;;;;;;;5.51;80.59;100286.28;5074418;28;20179;-84
2021/04/30 06:22:56;;;;;;;9.93;7.30;;;;;;;5.55;80.60;100287.88;5075834;28;20221;-82
2021/04/30 06:25:21;;;;;;;9.87;6.60;;;;;;;5.55;81.05;100293.16;5077772;28;20171;-81
2021/04/30 06:27:46;;;;;;;9.53;5.93;;;;;;;5.50;81.30;100298.66;5079505;28;20183;-80
2021/04/30 06:30:12;;;;;;;9.87;6.90;;;;;;;5.42;81.11;100295.47;5075850;28;20183;-84
2021/04/30 06:32:39;;;;;;;14.30;6.27;;;;;;;5.54;80.69;100309.97;5069449;28;20263;-79
2021/04/30 06:35:06;;;;;;;13.97;7.23;;;;;;;5.58;80.33;100308.97;5067524;28;20172;-79
2021/04/30 06:37:32;;;;;;;12.63;7.27;;;;;;;5.37;81.71;100304.50;5064351;28;20219;-79
2021/04/30 06:39:57;;;;;;;11.50;6.63;;;;;;;5.47;81.21;100309.38;5073840;28;20667;-80
2021/04/30 06:42:22;;;;;;;13.33;8.60;;;;;;;5.54;80.87;100310.84;5069156;28;20280;-80
2021/04/30 06:44:48;;;;;;;14.77;8.17;;;;;;;5.69;80.28;100313.81;5071386;28;20229;-81
2021/04/30 06:47:13;;;;;;;12.43;7.60;;;;;;;5.75;79.48;100317.06;5069674;28;20203;-80
2021/04/30 06:49:38;;;;;;;12.17;8.03;;;;;;;5.80;80.45;100325.66;5072584;28;20168;-80
2021/04/30 06:52:04;;;;;;;11.03;7.60;;;;;;;5.92;79.46;100329.63;5071607;28;20619;-80
2021/04/30 06:54:29;;;;;;;9.47;7.47;;;;;;;5.97;78.76;100327.66;5071249;28;20164;-80
2021/04/30 06:56:55;;;;;;;9.10;6.73;;;;;;;6.07;78.11;100336.09;5070756;28;20214;-80
2021/04/30 06:59:20;;;;;;;12.37;7.47;;;;;;;6.11;78.78;100337.69;5071932;28;20227;-80
2021/04/30 07:01:45;;;;;;;14.10;6.97;;;;;;;5.97;79.16;100337.41;5071362;28;20187;-80
2021/04/30 07:04:11;;;;;;;11.47;7.70;;;;;;;5.93;78.78;100332.22;5072442;28;20254;-80
2021/04/30 07:06:36;;;;;;;10.47;7.27;;;;;;;5.93;78.96;100341.94;5070268;28;20187;-80
2021/04/30 07:09:02;;;;;;;11.53;7.73;;;;;;;5.74;79.26;100339.16;5070227;28;20179;-81
2021/04/30 07:11:28;;;;;;;10.23;7.60;;;;;;;5.90;78.52;100345.56;5069058;28;20176;-80
2021/04/30 07:13:53;;;;;;;10.10;7.93;;;;;;;5.77;79.62;100352.28;5071867;28;20209;-81
2021/04/30 07:16:19;;;;;;;10.73;7.83;;;;;;;5.97;78.61;100355.94;5072026;28;20614;-80
2021/04/30 07:18:44;;;;;;;17.17;7.70;;;;;;;5.86;79.11;100361.63;5071216;28;20180;-81
2021/04/30 07:21:10;;;;;;;11.70;8.27;;;;;;;5.98;79.07;100361.19;5071528;28;20174;-79
2021/04/30 07:23:35;;;;;;;8.53;7.57;;;;;;;6.01;77.57;100370.78;5071147;28;20544;-81
2021/04/30 07:26:01;;;;;;;8.30;6.90;;;;;;;6.05;77.99;100375.91;5070889;28;20171;-81
2021/04/30 07:28:26;;;;;;;11.43;8.00;;;;;;;5.97;78.75;100378.00;5070880;28;20159;-81
2021/04/30 07:30:53;;;;;;;13.30;7.33;;;;;;;5.91;78.77;100376.44;5071992;28;20184;-81
2021/04/30 07:33:18;;;;;;;10.47;7.50;;;;;;;5.99;78.20;100394.69;5069093;28;20612;-80
2021/04/30 07:35:43;;;;;;;11.10;7.47;;;;;;;5.93;78.57;100395.78;5069842;28;20276;-80
2021/04/30 07:38:09;;;;;;;12.57;7.93;;;;;;;6.03;78.09;100406.88;5071353;28;20202;-82
2021/04/30 07:40:40;;;;;;;12.83;7.33;;;;;;;5.96;78.26;100416.00;5070064;28;20236;-81
2021/04/30 07:43:12;;;;;;;8.73;6.67;;;;;;;6.15;77.64;100419.63;5071086;28;20180;-81
2021/04/30 07:45:39;;;;;;;11.40;8.60;;;;;;;6.02;77.78;100420.19;5071632;28;20187;-81
2021/04/30 07:48:05;;;;;;;12.20;6.97;;;;;;;6.18;77.19;100426.59;5070651;28;20195;-82
2021/04/30 07:50:30;;;;;;;7.77;6.87;;;;;;;6.22;76.41;100425.53;5070952;28;20251;-81
2021/04/30 07:52:55;;;;;;;10.57;7.20;;;;;;;6.23;75.83;100430.75;5070240;28;20170;-82
2021/04/30 07:55:21;;;;;;;9.13;6.60;;;;;;;6.15;76.37;100430.22;5070565;28;20185;-82
2021/04/30 07:57:46;;;;;;;9.97;7.33;;;;;;;5.89;77.53;100447.16;5069226;28;20262;-82
2021/04/30 08:00:12;;;;;;;12.73;7.03;;;;;;;5.97;76.94;100449.53;5070222;28;20193;-82
2021/04/30 08:02:38;;;;;;;10.87;6.87;;;;;;;6.04;76.80;100445.69;5068116;28;20200;-80
2021/04/30 08:05:04;;;;;;;9.20;6.80;;;;;;;6.20;76.54;100449.44;5069306;28;20188;-80
2021/04/30 08:07:29;;;;;;;10.27;6.90;;;;;;;6.11;76.18;100464.84;5069180;28;20245;-81
2021/04/30 08:09:55;;;;;;;10.07;7.30;;;;;;;6.00;77.64;100475.03;5072753;28;20175;-81
2021/04/30 08:12:21;;;;;;;10.70;7.80;;;;;;;6.20;76.90;100469.78;5068812;28;20187;-80
2021/04/30 08:14:47;;;;;;;9.23;6.57;;;;;;;6.09;77.06;100477.31;5065480;28;20171;-80
2021/04/30 08:17:12;;;;;;;10.60;6.70;;;;;;;6.33;75.65;100476.31;5065288;28;20203;-81
2021/04/30 08:19:37;;;;;;;10.73;7.10;;;;;;;6.23;76.05;100478.47;5059024;28;20188;-80
2021/04/30 08:22:03;;;;;;;9.83;7.00;;;;;;;6.11;76.29;100471.03;5060131;28;20188;-82
2021/04/30 08:24:28;;;;;;;9.60;7.13;;;;;;;6.05;76.81;100479.22;5064880;28;20195;-82
2021/04/30 08:26:53;;;;;;;9.37;7.17;;;;;;;6.08;76.80;100478.22;5064941;28;20325;-81
2021/04/30 08:29:19;;;;;;;13.63;7.30;;;;;;;6.10;76.23;100486.97;5067222;28;20187;-82
2021/04/30 08:31:44;;;;;;;10.43;7.70;;;;;;;6.10;76.22;100498.44;5064547;28;20187;-81
2021/04/30 08:34:10;;;;;;;11.93;6.83;;;;;;;6.16;76.40;100515.88;5067062;28;20172;-81
2021/04/30 08:36:35;;;;;;;14.07;6.93;;;;;;;6.05;76.58;100513.66;5070163;28;20202;-80
2021/04/30 08:39:02;;;;;;;11.50;7.00;;;;;;;6.15;76.53;100522.97;5071394;28;20191;-81
2021/04/30 08:41:29;;;;;;;11.90;7.80;;;;;;;6.15;76.62;100536.22;5069089;28;20192;-82
2021/04/30 08:43:54;;;;;;;8.17;5.90;;;;;;;6.53;74.44;100509.94;5069420;28;20238;-82
2021/04/30 08:46:19;;;;;;;8.63;5.83;;;;;;;6.38;74.53;100514.09;5069054;28;20199;-81
2021/04/30 08:48:45;;;;;;;8.23;6.73;;;;;;;6.34;74.96;100523.13;5071384;28;20612;-80
2021/04/30 08:51:11;;;;;;;11.50;6.73;;;;;;;6.28;75.10;100518.03;5071806;28;20175;-82
2021/04/30 08:53:39;;;;;;;9.17;7.07;;;;;;;6.48;74.68;100519.88;5071973;28;20178;-81
2021/04/30 08:56:05;;;;;;;10.83;6.50;;;;;;;6.56;74.75;100528.38;5074301;28;20180;-77
2021/04/30 08:58:34;;;;;;;8.73;5.83;;;;;;;6.64;73.83;100531.56;5081974;28;20164;-76
2021/04/30 09:00:59;;;;;;;6.43;5.03;;;;;;;6.52;73.76;100543.56;5081877;28;20175;-79
2021/04/30 09:03:25;;;;;;;8.40;5.60;;;;;;;6.51;73.73;100551.56;5066843;28;20199;-81
2021/04/30 09:05:55;;;;;;;7.53;5.47;;;;;;;6.54;73.17;100544.34;5065448;28;20171;-81
2021/04/30 09:08:20;;;;;;;12.33;5.60;;;;;;;6.36;74.32;100552.22;5067684;28;20189;-81
2021/04/30 09:10:50;;;;;;;9.60;5.70;;;;;;;6.44;73.93;100561.56;5072744;28;20194;-80
2021/04/30 09:13:21;;;;;;;8.23;5.10;;;;;;;6.70;73.78;100567.63;5073834;28;20174;-80
2021/04/30 09:15:48;;;;;;;8.57;5.90;;;;;;;6.48;74.02;100560.53;5073730;28;20156;-80
2021/04/30 09:18:20;;;;;;;10.00;5.50;;;;;;;6.58;73.67;100561.88;5073271;28;20192;-82
2021/04/30 09:20:48;;;;;;;9.53;5.63;;;;;;;6.79;72.75;100562.78;5071769;28;20193;-81
2021/04/30 09:23:29;;;;;;;8.73;5.43;;;;;;;6.83;72.61;100563.53;5071880;28;20222;-81
2021/04/30 09:25:55;;;;;;;7.77;5.30;;;;;;;7.02;71.92;100568.91;5071062;28;20190;-81
2021/04/30 09:28:21;;;;;;;7.93;4.60;;;;;;;7.05;70.63;100560.81;5070719;28;20168;-82
2021/04/30 09:30:47;;;;;;;9.47;5.00;;;;;;;6.87;72.00;100576.59;5069975;28;20170;-81
2021/04/30 09:33:16;;;;;;;7.40;5.10;;;;;;;6.49;72.97;100564.91;5067021;28;20173;-81
2021/04/30 09:35:43;;;;;;;7.77;4.83;;;;;;;6.61;73.08;100586.53;5066598;28;20166;-81
2021/04/30 09:38:19;;;;;;;7.53;5.00;;;;;;;6.70;72.86;100578.22;5066291;28;20247;-81
2021/04/30 09:40:44;;;;;;;7.97;4.90;;;;;;;6.86;72.16;100584.63;5069006;28;20175;-82
2021/04/30 09:43:10;;;;;;;6.97;4.47;;;;;;;6.87;71.29;100579.25;5069203;28;20232;-80
2021/04/30 09:45:36;;;;;;;10.77;5.43;;;;;;;6.98;71.09;100573.47;5065500;28;20173;-80
2021/04/30 09:48:04;;;;;;;7.67;4.80;;;;;;;6.64;72.42;100583.75;5108240;22;20722;-77
2021/04/30 09:50:30;;;;;;;7.30;4.23;;;;;;;6.65;72.06;100590.78;5098547;28;20642;-78
2021/04/30 09:52:57;;;;;;;6.70;4.60;;;;;;;6.57;72.69;100605.22;5097513;28;20191;-77
2021/04/30 09:55:23;;;;;;;8.53;4.60;;;;;;;6.69;72.90;100608.28;5079751;28;20541;-77
2021/04/30 09:57:49;;;;;;;6.93;4.70;;;;;;;6.76;72.21;100615.09;5097212;28;20198;-78
2021/04/30 10:00:16;;;;;;;5.73;4.47;;;;;;;6.65;72.69;100617.31;5079662;28;20174;-78
2021/04/30 10:02:42;;;;;;;5.90;4.37;;;;;;;6.73;72.46;100609.94;5096733;28;20208;-78
2021/04/30 10:05:17;;;;;;;7.90;4.20;;;;;;;6.53;72.45;100605.41;5096972;28;20182;-76
2021/04/30 10:07:42;;;;;;;7.83;4.43;;;;;;;6.55;72.60;100598.25;5096896;28;20665;-77
2021/04/30 10:10:12;;;;;;;7.93;4.60;;;;;;;6.47;73.21;100603.88;5080760;28;20177;-79
2021/04/30 10:12:39;;;;;;;4.57;4.00;;;;;;;6.48;73.08;100595.00;5079896;28;20210;-78
2021/04/30 10:15:05;;;;;;;6.63;5.33;;;;;;;6.44;73.08;100604.00;5080308;28;20261;-77
2021/04/30 10:17:30;;;;;;;7.90;5.20;;;;;;;6.41;73.18;100598.81;5097199;28;20288;-78
2021/04/30 10:19:57;;;;;;;6.70;4.43;;;;;;;6.41;73.74;100612.06;5079479;28;20174;-77
2021/04/30 10:22:24;;;;;;;6.73;4.90;;;;;;;6.42;73.60;100624.41;5078948;28;20289;-78
2021/04/30 10:24:52;;;;;;;7.13;5.60;;;;;;;6.53;73.77;100632.78;5079768;28;20216;-78
2021/04/30 10:27:20;;;;;;;6.77;5.00;;;;;;;6.66;73.66;100630.50;5083146;28;20198;-77
2021/04/30 10:30:04;;;;;;;6.30;4.63;;;;;;;6.54;73.38;100631.00;5094811;28;20185;-77
2021/04/30 10:32:33;;;;;;;6.67;4.47;;;;;;;6.56;72.91;100630.00;5097023;28;20255;-76
2021/04/30 10:34:59;;;;;;;8.30;5.03;;;;;;;6.35;74.59;100617.63;5097162;28;20169;-78
2021/04/30 10:37:31;;;;;;;6.33;4.60;;;;;;;6.56;73.38;100624.72;5097925;28;20302;-79
2021/04/30 10:39:58;;;;;;;8.13;4.83;;;;;;;6.48;73.34;100623.28;5083453;28;20177;-78
2021/04/30 10:42:28;;;;;;;8.07;5.00;;;;;;;6.44;73.18;100624.34;5097074;28;20359;-78
2021/04/30 10:45:01;;;;;;;8.40;5.50;;;;;;;6.40;74.09;100620.94;5102332;28;20185;-78
2021/04/30 10:47:27;;;;;;;5.77;4.10;;;;;;;6.71;73.12;100622.38;5101670;28;20697;-77
2021/04/30 10:50:10;;;;;;;7.03;4.70;;;;;;;6.79;72.79;100628.25;5085007;28;20578;-77
2021/04/30 10:52:35;;;;;;;8.73;4.83;;;;;;;6.71;72.81;100615.28;5102781;28;20171;-77
2021/04/30 10:55:04;;;;;;;9.53;5.60;;;;;;;6.62;74.06;100633.34;5083425;28;20188;-78
2021/04/30 10:57:45;;;;;;;6.43;4.50;;;;;;;6.39;75.74;100635.13;5096289;28;20639;-79
2021/04/30 11:00:11;;;;;;;7.53;4.70;;;;;;;6.44;75.29;100640.25;5096799;28;20165;-77
2021/04/30 11:02:38;;;;;;;5.97;4.60;;;;;;;6.42;75.92;100634.13;5077991;28;20251;-78
2021/04/30 11:05:06;;;;;;;5.93;4.47;;;;;;;6.66;74.93;100637.59;5096405;28;20174;-78
2021/04/30 11:07:49;;;;;;;7.43;4.57;;;;;;;6.77;74.69;100649.53;5095225;28;20200;-78
2021/04/30 11:10:20;;;;;;;6.23;3.77;;;;;;;6.55;75.12;100649.50;5094592;28;20158;-76
2021/04/30 11:13:19;;;;;;;5.10;3.57;;;;;;;6.66;74.70;100662.31;5093181;28;20184;-78
2021/04/30 11:15:45;;;;;;;5.23;3.43;;;;;;;6.87;74.12;100665.94;5078251;28;20625;-78
2021/04/30 11:18:11;;;;;;;5.43;3.53;;;;;;;7.02;73.96;100665.28;5094748;28;20197;-76
2021/04/30 11:20:37;;;;;;;7.90;3.60;;;;;;;6.92;73.63;100671.03;5093266;28;20180;-76
2021/04/30 11:23:22;;;;;;;5.90;3.57;;;;;;;6.67;74.95;100672.00;5076116;28;20190;-76
2021/04/30 11:26:00;;;;;;;6.70;3.93;;;;;;;6.77;74.42;100668.09;5094911;28;20174;-77